Time;durP1;ratioP1;P1;durP2;ratioP2;P2;SDS_P1;SDS_P2;PMS_P1;PMS_P2;Temp;Humidity;BMP_temperature;BMP_pressure;BME280_temperature;BME280_humidity;BME280_pressure;Samples;Min_cycle;Max_cycle;Signal;HPM_P1;HPM_P2
2021/09/22 00:00:24;;;;;;;14.65;11.32;;;12.40;70.30;;;11.85;57.41;95827.03;5041038;28;20602;-79
2021/09/22 00:02:51;;;;;;;14.73;12.32;;;12.30;70.50;;;11.83;57.12;95818.47;5046973;28;20596;-78
2021/09/22 00:05:19;;;;;;;15.15;12.25;;;12.30;70.40;;;11.82;57.29;95811.59;5051761;28;20215;-79
2021/09/22 00:07:46;;;;;;;15.32;12.45;;;12.30;70.50;;;11.79;57.52;95811.97;5034192;28;20561;-78
2021/09/22 00:10:18;;;;;;;12.90;10.95;;;12.30;71.50;;;11.78;57.16;95812.94;5043647;28;20200;-79
2021/09/22 00:12:50;;;;;;;13.18;11.77;;;12.30;70.60;;;11.77;57.13;95819.19;5035152;28;20187;-79
2021/09/22 00:15:22;;;;;;;16.30;12.13;;;12.30;70.60;;;11.76;57.11;95812.31;5024657;28;20192;-78
2021/09/22 00:17:50;;;;;;;13.15;11.77;;;12.20;70.60;;;11.74;57.45;95806.41;5033689;28;20283;-78
2021/09/22 00:20:25;;;;;;;15.07;11.45;;;12.30;70.60;;;11.74;57.23;95809.03;5049496;28;20199;-78
2021/09/22 00:23:03;;;;;;;14.57;12.18;;;12.20;70.60;;;11.71;57.49;95809.38;5030166;28;20200;-79
2021/09/22 00:25:36;;;;;;;15.00;11.93;;;12.20;70.60;;;11.66;57.59;95798.59;5014173;28;20216;-79
2021/09/22 00:28:05;;;;;;;15.02;11.57;;;12.20;70.60;;;11.67;57.38;95797.59;5012945;28;20200;-79
2021/09/22 00:30:33;;;;;;;14.98;12.10;;;12.20;70.60;;;11.64;57.55;95795.31;5029720;28;20303;-79
2021/09/22 00:33:06;;;;;;;14.20;12.07;;;12.20;70.70;;;11.62;57.48;95792.88;5030027;28;20192;-79
2021/09/22 00:35:35;;;;;;;12.90;10.57;;;12.20;70.70;;;11.60;57.18;95775.66;5062217;28;20694;-79
2021/09/22 00:38:04;;;;;;;14.00;11.90;;;12.10;70.60;;;11.60;57.34;95784.34;5030198;28;20654;-79
2021/09/22 00:40:31;;;;;;;14.13;11.18;;;12.10;70.60;;;11.56;57.48;95782.25;5013668;28;20728;-79
2021/09/22 00:43:00;;;;;;;16.98;12.25;;;12.10;70.70;;;11.56;57.62;95788.31;4998219;28;20530;-79
2021/09/22 00:45:29;;;;;;;15.40;12.20;;;12.00;70.60;;;11.52;57.78;95779.97;5030801;28;20224;-79
2021/09/22 00:47:57;;;;;;;13.93;12.23;;;12.10;70.80;;;11.53;57.53;95788.66;5030305;28;20307;-79
2021/09/22 00:50:32;;;;;;;16.60;12.52;;;12.00;70.80;;;11.50;57.72;95779.31;5030025;28;20223;-79
2021/09/22 00:53:00;;;;;;;16.25;11.68;;;12.00;70.80;;;11.50;57.57;95787.22;5048806;28;20280;-79
2021/09/22 00:55:28;;;;;;;13.38;11.25;;;12.00;70.80;;;11.49;57.38;95776.88;5035328;28;20219;-79
2021/09/22 00:57:56;;;;;;;14.35;12.27;;;12.00;70.90;;;11.47;57.90;95782.28;5051329;28;20196;-79
2021/09/22 01:00:28;;;;;;;14.48;11.93;;;12.00;70.70;;;11.44;57.58;95768.72;5051406;28;20263;-79
2021/09/22 01:02:55;;;;;;;16.73;13.55;;;11.90;70.60;;;11.41;57.74;95769.88;5051227;28;20519;-79
2021/09/22 01:05:29;;;;;;;13.93;11.55;;;11.90;70.70;;;11.41;57.62;95769.06;5065702;28;20684;-79
2021/09/22 01:08:00;;;;;;;14.90;12.27;;;11.90;70.90;;;11.43;57.84;95775.78;5041116;28;20200;-79
2021/09/22 01:10:28;;;;;;;13.45;11.55;;;11.90;70.80;;;11.43;57.64;95769.72;5031272;28;20304;-79
2021/09/22 01:12:55;;;;;;;14.95;12.63;;;12.00;70.90;;;11.43;57.48;95770.50;5030556;28;20255;-79
2021/09/22 01:15:37;;;;;;;14.05;12.13;;;11.90;70.80;;;11.42;57.42;95773.31;5014916;28;20184;-79
2021/09/22 01:18:10;;;;;;;12.82;10.95;;;11.90;70.90;;;11.44;57.25;95766.91;5015600;28;20613;-79
2021/09/22 01:20:40;;;;;;;14.30;11.68;;;11.90;70.70;;;11.46;57.14;95762.28;5031210;28;20319;-79
2021/09/22 01:23:08;;;;;;;12.60;11.30;;;11.90;70.70;;;11.43;57.32;95770.50;5047732;28;20204;-79
2021/09/22 01:25:42;;;;;;;14.68;11.63;;;11.90;70.70;;;11.46;57.21;95756.22;5034683;28;20227;-79
2021/09/22 01:28:13;;;;;;;16.45;11.38;;;11.90;70.80;;;11.48;57.31;95762.91;5035073;28;20195;-79
2021/09/22 01:30:45;;;;;;;13.77;11.40;;;11.90;70.70;;;11.48;57.19;95756.84;5035152;28;20232;-79
2021/09/22 01:33:15;;;;;;;13.23;10.90;;;11.90;70.70;;;11.47;57.24;95749.97;5049083;28;20734;-79
2021/09/22 01:36:05;;;;;;;13.25;10.68;;;11.90;70.70;;;11.47;57.30;95747.34;5048208;28;20227;-80
2021/09/22 01:38:34;;;;;;;14.55;10.18;;;11.90;70.70;;;11.48;57.32;95746.34;5051146;28;20203;-79
2021/09/22 01:41:11;;;;;;;13.75;11.23;;;11.90;70.60;;;11.47;57.38;95745.50;5047226;28;20616;-79
2021/09/22 01:43:49;;;;;;;14.80;10.98;;;11.90;70.70;;;11.48;57.26;95755.03;5031337;28;20208;-80
2021/09/22 01:46:23;;;;;;;10.93;9.63;;;11.90;70.60;;;11.50;57.23;95755.69;5031047;28;20242;-79
2021/09/22 01:48:56;;;;;;;12.90;10.27;;;12.10;70.70;;;11.50;57.19;95750.44;5016014;28;20214;-79
2021/09/22 01:51:25;;;;;;;13.93;11.30;;;12.00;70.60;;;11.51;57.09;95756.50;5039856;28;20239;-80
2021/09/22 01:54:06;;;;;;;11.63;10.05;;;11.90;70.60;;;11.54;57.09;95748.28;5019438;28;20243;-79
2021/09/22 01:56:35;;;;;;;13.40;10.85;;;12.00;70.60;;;11.53;57.14;95747.47;5014811;28;20220;-79
2021/09/22 01:59:06;;;;;;;12.27;10.02;;;12.00;70.60;;;11.56;56.78;95745.47;5034800;28;20669;-79
2021/09/22 02:01:53;;;;;;;12.57;9.85;;;12.00;70.60;;;11.59;56.98;95739.88;5051659;28;20451;-79
2021/09/22 02:04:37;;;;;;;13.45;10.15;;;12.00;70.50;;;11.61;57.01;95737.84;5026447;28;20588;-79
2021/09/22 02:07:09;;;;;;;11.73;9.50;;;12.00;70.50;;;11.62;56.79;95737.69;5052556;28;20278;-78
2021/09/22 02:09:37;;;;;;;13.55;10.63;;;12.00;70.50;;;11.62;56.90;95736.88;5054566;28;20680;-79
2021/09/22 02:12:07;;;;;;;11.77;10.07;;;12.00;70.50;;;11.65;56.86;95734.69;5038076;28;20220;-79
2021/09/22 02:14:35;;;;;;;12.75;9.70;;;12.10;70.50;;;11.68;56.97;95729.09;5038182;28;20199;-79
2021/09/22 02:17:03;;;;;;;12.75;10.30;;;12.20;71.50;;;11.71;56.77;95721.88;5033597;28;20251;-79
2021/09/22 02:19:36;;;;;;;13.13;10.23;;;12.10;70.40;;;11.70;56.76;95710.53;5051125;28;20717;-79
2021/09/22 02:22:23;;;;;;;12.48;9.43;;;12.10;70.30;;;11.67;56.76;95703.00;5034375;28;20713;-79
2021/09/22 02:25:05;;;;;;;11.63;9.63;;;12.10;70.20;;;11.71;56.71;95700.84;5049346;28;20199;-79
2021/09/22 02:27:33;;;;;;;10.32;8.65;;;12.10;70.20;;;11.69;56.51;95703.63;5033154;28;20216;-81
2021/09/22 02:30:07;;;;;;;11.15;9.48;;;12.20;70.20;;;11.71;56.51;95703.47;5002618;28;20204;-79
2021/09/22 02:32:37;;;;;;;10.63;9.35;;;12.10;70.10;;;11.69;56.53;95704.47;5034265;28;20204;-79
2021/09/22 02:35:08;;;;;;;10.63;8.73;;;12.20;70.20;;;11.71;56.04;95699.00;5001957;28;20224;-79
2021/09/22 02:37:56;;;;;;;11.80;8.70;;;12.10;70.20;;;11.73;56.54;95693.56;5034795;28;20204;-79
2021/09/22 02:40:44;;;;;;;9.35;7.65;;;12.10;70.10;;;11.78;56.62;95706.97;5006892;28;20311;-79
2021/09/22 02:43:13;;;;;;;10.15;8.80;;;12.10;70.10;;;11.78;56.49;95696.47;5001839;28;20295;-79
2021/09/22 02:45:40;;;;;;;8.75;7.85;;;12.20;70.20;;;11.79;56.65;95691.06;5053946;28;20639;-80
2021/09/22 02:48:08;;;;;;;11.90;9.27;;;12.20;70.20;;;11.82;56.23;95690.69;5035668;28;20204;-79
2021/09/22 02:50:37;;;;;;;9.00;7.75;;;12.20;70.10;;;11.87;56.26;95694.59;5020514;28;20583;-79
2021/09/22 02:53:06;;;;;;;10.63;7.90;;;12.20;70.20;;;11.85;56.30;95692.97;5019186;28;20653;-79
2021/09/22 02:55:33;;;;;;;9.38;7.72;;;12.30;70.20;;;11.87;56.31;95694.59;5052556;28;20302;-79
2021/09/22 02:58:01;;;;;;;9.10;7.47;;;12.20;70.00;;;11.89;56.27;95676.81;5035453;28;20199;-79
2021/09/22 03:00:30;;;;;;;9.07;8.13;;;12.20;70.00;;;11.87;56.23;95671.75;5035038;28;20247;-79
2021/09/22 03:02:59;;;;;;;8.75;7.68;;;12.30;70.10;;;11.88;56.17;95670.75;5051322;28;20223;-79
2021/09/22 03:05:26;;;;;;;10.30;7.85;;;12.20;70.00;;;11.88;56.16;95665.50;5034827;28;20292;-79
2021/09/22 03:07:53;;;;;;;9.68;7.63;;;12.30;70.10;;;11.87;56.30;95650.72;5035157;28;20220;-79
2021/09/22 03:10:21;;;;;;;8.60;7.35;;;12.30;70.10;;;11.92;56.41;95660.69;5015258;28;20254;-79
2021/09/22 03:12:48;;;;;;;9.05;7.55;;;12.30;70.00;;;11.90;56.20;95655.63;5031481;28;20188;-79
2021/09/22 03:15:16;;;;;;;10.32;7.75;;;12.30;70.10;;;11.89;56.16;95655.78;5050041;28;20354;-79
2021/09/22 03:17:44;;;;;;;10.65;8.20;;;12.30;70.00;;;11.87;56.04;95655.97;5034825;28;20207;-79
2021/09/22 03:20:12;;;;;;;8.93;7.68;;;12.30;70.10;;;11.88;56.35;95667.28;5051144;28;20237;-79
2021/09/22 03:22:39;;;;;;;9.15;7.25;;;12.30;70.10;;;11.89;56.25;95653.16;5051199;28;20219;-79
2021/09/22 03:25:16;;;;;;;10.85;7.88;;;12.30;70.20;;;11.87;56.45;95644.66;5034294;28;20288;-79
2021/09/22 03:27:44;;;;;;;11.70;8.27;;;12.40;70.20;;;11.88;56.46;95647.09;5051705;28;20259;-79
2021/09/22 03:30:16;;;;;;;9.10;7.15;;;12.30;70.30;;;11.90;56.41;95646.91;5037604;28;20738;-79
2021/09/22 03:32:50;;;;;;;9.55;6.95;;;12.30;70.30;;;11.89;56.49;95648.72;5044201;28;20279;-79
2021/09/22 03:35:17;;;;;;;11.98;7.45;;;12.30;70.40;;;11.89;56.51;95642.63;5016481;28;20196;-79
2021/09/22 03:37:45;;;;;;;9.52;7.50;;;12.40;70.30;;;11.89;56.59;95643.47;5048146;28;20201;-79
2021/09/22 03:40:13;;;;;;;9.02;7.97;;;12.30;70.20;;;11.86;56.76;95643.81;5016474;28;20200;-79
2021/09/22 03:42:40;;;;;;;9.02;7.80;;;12.30;70.30;;;11.84;56.70;95640.59;5032685;28;20291;-79
2021/09/22 03:45:11;;;;;;;10.80;7.68;;;12.30;70.20;;;11.81;57.01;95646.19;5033766;28;20210;-79
2021/09/22 03:47:40;;;;;;;8.75;7.63;;;12.30;70.30;;;11.79;56.95;95651.63;5016064;28;20270;-79
2021/09/22 03:50:08;;;;;;;10.18;7.70;;;12.30;70.40;;;11.77;56.74;95642.31;5016285;28;20230;-79
2021/09/22 03:52:57;;;;;;;8.32;7.10;;;12.20;70.40;;;11.71;57.24;95637.78;5019105;28;20685;-78
2021/09/22 03:55:25;;;;;;;8.65;6.60;;;12.20;70.40;;;11.71;56.96;95632.50;5016913;28;20252;-79
2021/09/22 03:57:52;;;;;;;9.85;6.95;;;12.20;70.40;;;11.67;57.19;95627.59;5031456;28;20207;-79
2021/09/22 04:00:20;;;;;;;9.20;7.28;;;12.20;70.50;;;11.65;57.02;95634.84;5013375;28;20650;-79
2021/09/22 04:02:48;;;;;;;9.77;7.13;;;12.20;70.50;;;11.63;57.11;95621.09;5012153;28;20228;-80
2021/09/22 04:05:16;;;;;;;9.15;6.97;;;12.10;70.40;;;11.60;57.49;95631.16;5065174;28;20242;-79
2021/09/22 04:07:44;;;;;;;9.05;7.18;;;12.10;70.50;;;11.58;57.51;95638.38;5065181;28;20314;-79
2021/09/22 04:10:12;;;;;;;8.23;7.22;;;12.20;71.70;;;11.58;57.63;95633.94;5048312;28;20200;-79
2021/09/22 04:12:39;;;;;;;7.50;6.60;;;12.10;70.70;;;11.54;57.38;95630.84;5015313;28;20184;-79
2021/09/22 04:15:07;;;;;;;8.82;7.13;;;12.10;70.80;;;11.57;57.56;95636.75;5032340;28;20709;-79
2021/09/22 04:17:35;;;;;;;7.53;6.68;;;12.10;70.90;;;11.61;57.39;95630.97;5033110;28;20196;-79
2021/09/22 04:20:10;;;;;;;6.30;5.70;;;12.00;70.80;;;11.60;57.39;95628.53;5039021;28;20286;-79
2021/09/22 04:22:43;;;;;;;7.72;6.10;;;12.10;71.00;;;11.62;57.35;95627.34;5030988;28;20220;-77
2021/09/22 04:25:13;;;;;;;7.90;6.53;;;12.10;71.00;;;11.64;57.55;95614.00;5031871;28;20196;-79
2021/09/22 04:27:52;;;;;;;7.78;6.85;;;12.10;71.10;;;11.64;57.80;95620.06;5031456;28;20235;-78
2021/09/22 04:30:39;;;;;;;7.95;6.82;;;12.10;71.10;;;11.66;57.73;95614.66;5035315;28;20238;-79
2021/09/22 04:33:25;;;;;;;8.40;7.05;;;12.10;71.40;;;11.63;58.13;95615.84;5030961;28;20244;-79
2021/09/22 04:36:12;;;;;;;7.30;6.20;;;12.10;71.30;;;11.62;57.78;95611.56;5032988;28;20243;-79
2021/09/22 04:38:58;;;;;;;7.07;6.32;;;12.10;71.30;;;11.66;57.79;95610.19;5018784;28;20239;-79
2021/09/22 04:41:44;;;;;;;7.80;6.30;;;12.10;71.40;;;11.68;57.92;95607.38;5032163;28;20226;-79
2021/09/22 04:44:30;;;;;;;8.68;6.65;;;12.10;71.40;;;11.74;58.09;95626.88;5018559;28;20203;-79
2021/09/22 04:47:18;;;;;;;8.48;5.93;;;12.10;71.60;;;11.72;57.99;95623.59;5018105;28;20331;-79
2021/09/22 04:50:07;;;;;;;9.65;6.53;;;12.10;71.70;;;11.72;58.09;95631.50;5032917;28;20556;-78
2021/09/22 04:52:53;;;;;;;8.68;6.18;;;12.10;71.90;;;11.67;58.27;95632.84;5046000;28;20226;-80
2021/09/22 04:55:39;;;;;;;8.82;6.43;;;12.10;71.80;;;11.62;58.71;95639.63;5031624;28;20243;-79
2021/09/22 04:58:24;;;;;;;7.47;6.13;;;12.10;72.00;;;11.55;58.84;95634.31;5018232;28;20286;-79
2021/09/22 05:01:10;;;;;;;8.82;7.13;;;12.10;72.10;;;11.51;59.59;95643.53;5032086;28;20591;-79
2021/09/22 05:03:56;;;;;;;8.57;7.20;;;12.00;72.50;;;11.44;59.78;95638.19;5031841;28;20661;-80
2021/09/22 05:06:43;;;;;;;7.32;6.05;;;12.00;72.80;;;11.37;60.40;95630.19;5032315;28;20230;-78
2021/09/22 05:09:28;;;;;;;7.60;6.20;;;11.90;73.00;;;11.33;60.17;95628.94;5042520;28;20207;-79
2021/09/22 05:12:14;;;;;;;10.07;6.25;;;11.90;73.00;;;11.29;61.30;95648.66;5031762;28;20232;-79
2021/09/22 05:14:59;;;;;;;8.18;6.40;;;11.90;73.40;;;11.21;60.94;95639.03;5031775;28;20210;-79
2021/09/22 05:17:45;;;;;;;7.68;6.03;;;11.80;73.50;;;11.21;61.39;95649.53;5051064;28;20203;-80
2021/09/22 05:20:30;;;;;;;7.97;6.57;;;11.80;73.70;;;11.17;61.44;95643.03;5038086;28;20230;-79
2021/09/22 05:23:16;;;;;;;8.40;6.53;;;11.90;74.00;;;11.17;61.38;95647.47;5036955;28;20665;-80
2021/09/22 05:26:01;;;;;;;8.07;6.53;;;11.70;74.00;;;11.14;62.12;95648.63;5037369;28;20273;-79
2021/09/22 05:28:47;;;;;;;8.35;5.93;;;11.70;74.20;;;11.14;61.88;95647.81;5037291;28;20206;-80
2021/09/22 05:31:33;;;;;;;8.15;6.43;;;11.70;74.30;;;11.11;61.98;95640.28;5044684;28;20227;-79
2021/09/22 05:34:18;;;;;;;7.22;6.28;;;11.70;74.40;;;11.10;62.13;95649.97;5017935;28;20211;-80
2021/09/22 05:37:04;;;;;;;7.03;5.82;;;11.60;74.40;;;11.11;62.36;95643.72;5018858;28;20219;-78
2021/09/22 05:39:50;;;;;;;8.27;6.22;;;11.60;74.60;;;11.09;62.68;95650.97;5035853;28;20745;-79
2021/09/22 05:42:36;;;;;;;9.88;5.90;;;11.70;75.00;;;11.10;62.42;95660.47;5036644;28;20664;-79
2021/09/22 05:45:38;;;;;;;7.90;6.45;;;11.60;75.00;;;11.11;62.74;95656.84;5002497;28;20216;-80
2021/09/22 05:48:24;;;;;;;7.60;6.43;;;11.60;75.00;;;11.06;63.19;95646.06;5036441;28;20231;-78
2021/09/22 05:51:15;;;;;;;7.03;5.95;;;11.60;75.30;;;11.10;62.65;95657.84;5050341;28;20250;-79
2021/09/22 05:54:01;;;;;;;8.43;6.20;;;11.60;75.30;;;11.13;62.70;95659.31;5034654;28;20214;-79
2021/09/22 05:56:46;;;;;;;6.90;5.68;;;11.60;75.40;;;11.12;62.99;95671.63;5044926;28;20316;-80
2021/09/22 05:59:32;;;;;;;7.88;6.55;;;11.70;75.80;;;11.16;62.75;95664.22;5036953;28;20206;-79
2021/09/22 06:02:18;;;;;;;10.05;6.85;;;11.60;75.70;;;11.18;62.61;95667.47;5052477;28;20601;-79
2021/09/22 06:05:06;;;;;;;8.88;6.55;;;11.60;75.70;;;11.13;63.33;95662.75;5039391;28;20198;-80
2021/09/22 06:08:09;;;;;;;8.48;6.45;;;11.60;75.70;;;11.17;62.69;95669.28;5034217;28;20317;-79
2021/09/22 06:11:03;;;;;;;7.88;5.82;;;11.70;75.80;;;11.19;62.76;95676.97;5041466;28;20234;-79
2021/09/22 06:13:57;;;;;;;8.10;6.80;;;11.70;75.80;;;11.17;62.97;95661.41;5022723;28;20702;-80
2021/09/22 06:16:29;;;;;;;7.63;6.20;;;11.70;75.80;;;11.16;62.72;95666.84;5031151;28;20418;-79
2021/09/22 06:19:15;;;;;;;9.10;6.30;;;11.60;75.70;;;11.26;62.70;95674.47;5038222;28;20653;-81
2021/09/22 06:21:42;;;;;;;8.82;6.45;;;11.70;75.80;;;11.25;63.13;95670.22;5035902;28;20255;-79
2021/09/22 06:24:10;;;;;;;7.78;6.57;;;11.70;75.80;;;11.25;63.69;95672.84;5049050;28;20707;-79
2021/09/22 06:26:55;;;;;;;8.27;5.93;;;11.70;75.80;;;11.25;63.34;95683.34;5018636;28;20243;-80
2021/09/22 06:29:22;;;;;;;7.65;5.95;;;11.70;75.80;;;11.19;62.93;95672.56;5032387;28;20200;-80
2021/09/22 06:31:50;;;;;;;7.22;5.55;;;11.70;75.80;;;11.25;63.01;95683.34;5023506;28;20232;-79
2021/09/22 06:34:28;;;;;;;6.35;5.60;;;11.70;75.80;;;11.29;62.76;95684.59;5037466;28;20551;-80
2021/09/22 06:36:56;;;;;;;6.97;5.88;;;11.70;75.80;;;11.35;62.95;95691.78;5035239;28;20310;-79
2021/09/22 06:39:23;;;;;;;7.45;6.15;;;11.70;75.80;;;11.32;63.31;95686.88;5015447;28;20714;-80
2021/09/22 06:41:52;;;;;;;8.85;6.68;;;11.70;75.80;;;11.38;63.89;95686.19;5045247;28;20226;-80
2021/09/22 06:44:23;;;;;;;7.80;6.60;;;11.80;76.10;;;11.36;64.25;95680.28;5035182;28;20199;-80
2021/09/22 06:46:50;;;;;;;7.28;6.18;;;11.80;76.30;;;11.37;63.84;95680.09;5033775;28;20255;-80
2021/09/22 06:49:17;;;;;;;7.25;6.22;;;11.80;76.40;;;11.42;63.39;95692.69;5015671;28;20296;-80
2021/09/22 06:51:45;;;;;;;7.32;6.38;;;11.90;76.50;;;11.42;64.09;95684.00;5031757;28;20703;-80
2021/09/22 06:54:15;;;;;;;7.47;5.97;;;11.80;77.40;;;11.43;64.45;95680.41;5015943;28;20212;-80
2021/09/22 06:56:42;;;;;;;7.43;5.85;;;11.90;76.80;;;11.44;63.79;95684.66;5017227;28;20640;-79
2021/09/22 06:59:09;;;;;;;6.88;5.80;;;11.90;76.80;;;11.46;63.89;95680.88;5033148;28;20192;-80
2021/09/22 07:01:36;;;;;;;8.75;6.63;;;11.90;76.90;;;11.49;63.77;95680.50;5027915;28;20220;-80
2021/09/22 07:04:04;;;;;;;9.27;6.93;;;11.90;77.70;;;11.50;64.05;95683.94;5020651;28;20638;-81
2021/09/22 07:06:32;;;;;;;8.10;7.25;;;11.90;76.90;;;11.53;64.24;95683.56;5020718;28;20220;-80
2021/09/22 07:08:59;;;;;;;8.10;6.82;;;11.90;77.00;;;11.56;64.27;95695.53;5053556;28;20841;-80
2021/09/22 07:11:26;;;;;;;8.30;6.43;;;12.00;77.00;;;11.56;64.18;95691.13;5033078;28;20224;-80
2021/09/22 07:13:54;;;;;;;9.48;6.45;;;12.00;77.10;;;11.60;64.02;95689.75;5023402;28;20196;-81
2021/09/22 07:16:21;;;;;;;9.82;7.55;;;12.00;77.10;;;11.63;64.16;95697.28;5049932;28;20208;-80
2021/09/22 07:18:48;;;;;;;9.00;6.97;;;12.00;77.20;;;11.66;63.78;95698.75;5033465;28;20188;-81
2021/09/22 07:21:16;;;;;;;10.75;7.30;;;12.00;77.20;;;11.71;64.55;95704.28;5016778;28;20282;-80
2021/09/22 07:23:44;;;;;;;7.78;6.75;;;12.10;77.30;;;11.72;64.46;95694.56;5017009;28;20239;-80
2021/09/22 07:26:12;;;;;;;8.55;6.93;;;12.10;77.40;;;11.75;64.45;95705.53;5049459;28;20220;-81
2021/09/22 07:28:39;;;;;;;8.82;6.95;;;12.10;77.30;;;11.78;64.01;95699.09;5016322;28;20223;-81
2021/09/22 07:31:06;;;;;;;9.13;7.47;;;12.10;77.30;;;11.79;64.55;95698.94;5016616;28;20224;-80
2021/09/22 07:33:34;;;;;;;9.52;7.78;;;12.10;77.50;;;11.83;64.37;95707.28;5016859;28;20196;-80
2021/09/22 07:36:03;;;;;;;9.57;6.80;;;12.20;77.50;;;11.90;64.09;95715.25;5016849;28;20224;-79
2021/09/22 07:38:30;;;;;;;12.48;8.18;;;12.20;77.60;;;11.91;64.96;95722.16;5033178;28;20271;-79
2021/09/22 07:40:58;;;;;;;11.38;7.80;;;12.20;77.70;;;11.92;65.52;95723.78;5032773;28;20256;-80
2021/09/22 07:43:25;;;;;;;10.77;8.60;;;12.40;78.70;;;11.92;65.38;95727.22;5054980;28;20211;-80
2021/09/22 07:45:52;;;;;;;9.43;7.68;;;12.30;77.90;;;11.92;65.00;95723.78;5032910;28;20207;-80
2021/09/22 07:48:21;;;;;;;9.25;7.10;;;12.30;77.90;;;11.96;64.68;95732.94;5032896;28;20652;-80
2021/09/22 07:50:49;;;;;;;10.27;7.28;;;12.30;77.80;;;11.99;64.53;95728.16;5032190;28;20226;-80
2021/09/22 07:53:16;;;;;;;9.43;7.47;;;12.30;77.70;;;12.01;64.43;95728.81;5041693;28;20245;-80
2021/09/22 07:55:44;;;;;;;8.75;7.13;;;12.40;77.80;;;12.06;64.48;95735.31;5052897;28;20322;-79
2021/09/22 07:58:12;;;;;;;10.25;7.63;;;12.40;77.80;;;12.09;64.32;95740.25;5052723;28;20229;-79
2021/09/22 08:00:39;;;;;;;8.25;7.38;;;12.40;77.70;;;12.10;64.53;95739.25;5035397;28;20230;-80
2021/09/22 08:03:07;;;;;;;8.73;6.90;;;12.40;77.60;;;12.14;64.42;95740.50;5035877;28;20192;-79
2021/09/22 08:05:38;;;;;;;8.27;7.35;;;12.40;77.60;;;12.15;64.48;95745.56;5032307;28;20314;-80
2021/09/22 08:08:09;;;;;;;8.98;6.10;;;12.50;77.80;;;12.19;64.19;95738.16;5035794;28;20215;-80
2021/09/22 08:10:38;;;;;;;10.50;7.75;;;12.50;78.00;;;12.30;64.61;95736.88;5051034;28;20200;-79
2021/09/22 08:13:05;;;;;;;10.15;7.47;;;12.50;78.00;;;12.38;64.67;95723.63;5016360;28;20294;-79
2021/09/22 08:15:33;;;;;;;13.40;8.35;;;12.60;78.20;;;12.44;65.10;95733.44;5047526;28;20223;-79
2021/09/22 08:18:00;;;;;;;9.75;7.97;;;12.60;78.20;;;12.53;64.91;95739.41;5048303;28;20246;-79
2021/09/22 08:20:27;;;;;;;9.45;7.75;;;12.70;78.30;;;12.61;64.45;95731.41;5031822;28;20276;-80
2021/09/22 08:22:54;;;;;;;9.60;7.22;;;12.70;78.40;;;12.72;64.98;95732.75;5032496;28;20245;-80
2021/09/22 08:25:22;;;;;;;8.70;7.70;;;12.90;78.60;;;12.82;64.68;95730.63;5032192;28;20191;-80
2021/09/22 08:27:49;;;;;;;8.68;7.10;;;12.90;78.80;;;12.89;64.69;95722.81;5032152;28;20580;-79
2021/09/22 08:30:17;;;;;;;10.45;7.57;;;13.00;78.70;;;12.98;64.60;95732.22;5052201;28;20642;-80
2021/09/22 08:32:45;;;;;;;10.75;7.50;;;13.10;78.70;;;13.04;64.58;95719.31;5036137;28;20212;-80
2021/09/22 08:35:12;;;;;;;8.98;7.32;;;13.10;78.60;;;13.11;64.67;95704.41;5031845;28;20234;-79
2021/09/22 08:37:41;;;;;;;8.32;7.18;;;13.20;78.70;;;13.20;64.84;95707.72;5051708;28;20204;-80
2021/09/22 08:40:10;;;;;;;9.77;7.40;;;13.30;78.70;;;13.23;64.42;95708.16;5035515;28;20652;-80
2021/09/22 08:42:38;;;;;;;12.10;6.85;;;13.30;78.70;;;13.24;64.32;95716.88;5032096;28;20220;-79
2021/09/22 08:45:08;;;;;;;9.48;6.53;;;13.40;78.50;;;13.23;64.15;95715.25;5015208;28;20227;-81
2021/09/22 08:47:35;;;;;;;7.65;6.07;;;13.40;78.30;;;13.24;64.13;95722.97;5048024;28;20222;-79
2021/09/22 08:50:03;;;;;;;7.85;6.40;;;13.50;78.30;;;13.24;64.21;95716.88;5031863;28;20236;-81
2021/09/22 08:52:31;;;;;;;7.35;6.53;;;13.50;78.20;;;13.26;64.08;95725.41;5032394;28;20250;-81
2021/09/22 08:54:58;;;;;;;7.80;6.35;;;13.60;78.00;;;13.23;64.38;95733.69;5031595;28;20281;-80
2021/09/22 08:57:25;;;;;;;7.53;6.25;;;13.50;77.80;;;13.19;63.84;95716.63;5031636;28;20685;-82
2021/09/22 08:59:52;;;;;;;10.98;7.20;;;13.50;77.70;;;13.10;63.81;95708.03;5031539;28;20226;-79
2021/09/22 09:02:22;;;;;;;10.82;7.20;;;13.50;77.70;;;13.08;64.34;95720.56;5014219;28;20511;-81
2021/09/22 09:05:15;;;;;;;8.63;6.47;;;13.50;77.60;;;13.00;64.14;95731.22;5030509;28;20203;-80
2021/09/22 09:08:03;;;;;;;11.82;7.50;;;13.40;77.60;;;12.92;64.73;95725.06;5045940;28;20216;-80
2021/09/22 09:10:34;;;;;;;9.43;7.22;;;13.40;77.70;;;12.94;64.78;95730.97;5030863;28;20227;-79
2021/09/22 09:13:01;;;;;;;8.13;6.25;;;13.40;78.10;;;13.02;64.66;95731.84;5033899;28;20196;-79
2021/09/22 09:15:38;;;;;;;9.30;7.07;;;13.40;78.20;;;13.17;64.83;95734.44;5050296;28;20223;-80
2021/09/22 09:18:25;;;;;;;9.75;6.70;;;13.40;78.60;;;13.38;65.03;95739.75;5026617;28;20401;-80
2021/09/22 09:20:54;;;;;;;9.73;6.25;;;13.50;79.30;;;13.66;64.73;95740.78;5045617;28;20642;-80
2021/09/22 09:23:23;;;;;;;10.80;6.68;;;13.50;79.50;;;13.92;64.44;95734.91;5036627;28;20613;-80
2021/09/22 09:26:03;;;;;;;12.63;6.25;;;13.70;79.90;;;14.21;64.88;95733.88;5005149;28;20282;-79
2021/09/22 09:28:35;;;;;;;9.15;5.95;;;13.90;80.20;;;14.48;64.50;95744.56;5013495;28;20263;-80
2021/09/22 09:31:07;;;;;;;8.52;6.43;;;14.10;80.20;;;14.73;64.29;95725.59;5032091;28;20558;-79
2021/09/22 09:33:47;;;;;;;9.48;6.38;;;14.30;80.40;;;14.97;64.54;95731.38;5041424;28;20226;-81
2021/09/22 09:36:31;;;;;;;9.32;6.32;;;14.50;80.20;;;15.16;64.18;95722.69;5030675;28;20215;-78
2021/09/22 09:39:11;;;;;;;10.38;6.53;;;14.80;80.00;;;15.40;63.77;95730.25;5014698;28;20199;-79
2021/09/22 09:41:51;;;;;;;10.02;6.32;;;15.00;80.00;;;15.58;63.57;95719.09;5002389;28;20219;-79
2021/09/22 09:44:26;;;;;;;8.40;6.07;;;15.10;80.00;;;15.78;63.41;95719.06;5047318;28;20211;-79
2021/09/22 09:47:09;;;;;;;8.73;5.43;;;15.30;80.60;;;15.99;63.42;95720.69;5035857;28;20227;-79
2021/09/22 09:49:39;;;;;;;8.90;5.60;;;15.60;79.90;;;16.20;63.47;95714.38;5033097;28;20227;-78
2021/09/22 09:52:07;;;;;;;9.43;5.60;;;15.70;79.70;;;16.42;62.83;95711.47;5030503;28;20219;-79
2021/09/22 09:54:38;;;;;;;8.48;5.28;;;16.00;78.90;;;16.59;62.50;95704.66;5031020;28;20556;-78
2021/09/22 09:57:17;;;;;;;7.20;4.82;;;16.20;79.00;;;16.77;61.93;95708.44;5014857;28;20262;-79
2021/09/22 09:59:50;;;;;;;9.23;5.20;;;16.30;78.30;;;16.84;61.34;95711.88;4998275;28;20420;-78
2021/09/22 10:02:28;;;;;;;8.30;5.03;;;16.50;77.90;;;16.83;61.33;95720.06;5014357;28;20252;-78
2021/09/22 10:04:57;;;;;;;9.10;5.65;;;16.70;77.40;;;16.63;60.02;95711.16;5015509;28;20243;-79
2021/09/22 10:07:26;;;;;;;10.40;5.43;;;16.70;76.10;;;16.44;58.80;95715.53;5014541;28;20338;-78
2021/09/22 10:09:53;;;;;;;8.43;5.25;;;16.70;75.30;;;16.23;59.80;95729.81;4998160;28;20211;-79
2021/09/22 10:12:21;;;;;;;8.73;5.05;;;16.60;75.10;;;16.06;59.78;95732.09;5014142;28;20212;-78
2021/09/22 10:14:50;;;;;;;7.88;5.13;;;16.50;75.00;;;15.87;59.89;95733.75;5043712;28;20379;-78
2021/09/22 10:17:18;;;;;;;8.38;5.10;;;16.40;74.90;;;15.74;59.66;95736.38;5028082;28;20303;-78
2021/09/22 10:19:47;;;;;;;11.48;5.15;;;16.30;74.70;;;15.56;59.46;95735.13;5026984;28;20291;-78
2021/09/22 10:22:16;;;;;;;8.98;4.88;;;16.10;74.40;;;15.43;60.03;95741.25;5027030;28;20693;-79
2021/09/22 10:24:46;;;;;;;9.02;5.53;;;16.10;74.70;;;15.31;59.94;95746.28;5034470;28;20669;-78
2021/09/22 10:27:16;;;;;;;6.78;4.63;;;15.90;74.60;;;15.23;60.08;95748.31;5017743;28;20248;-79
2021/09/22 10:30:03;;;;;;;7.88;4.65;;;15.80;74.70;;;15.13;60.12;95738.13;5032052;28;20259;-78
2021/09/22 10:32:49;;;;;;;6.50;4.78;;;15.70;74.50;;;15.00;59.84;95736.25;5015953;28;20199;-79
2021/09/22 10:35:25;;;;;;;8.73;4.78;;;15.60;74.50;;;14.95;60.05;95739.53;5015225;28;20249;-78
2021/09/22 10:38:01;;;;;;;10.98;5.28;;;15.50;74.80;;;14.87;60.22;95742.31;5032107;28;20666;-79
2021/09/22 10:40:34;;;;;;;9.77;5.00;;;15.50;74.80;;;14.79;60.06;95748.56;5036617;28;20218;-79